Weather at El Aceituno Airport

Public forecast

Using degrees Celsius for public forecast. Weather courtesy of forecast.io.

Closest aviation weather report (METAR) to El Aceituno Airport

Report is more than 6 hours old.

Closest report is Perales Airport, 7.9 nm (14.7 km) NW. Retrieved 2020/09/30 19:00 UTC (2 months ago):

SKIB 301900Z 14011KT 9999 SCT030 BKN100 29/21 A3003

Closest aviation forecast (TAF) to El Aceituno Airport

Forecast is more than 12 hours old.

Closest forecast is El Eden Airport, 44.9 nm (83.1 km) W. Retrieved 2017/01/12 18:15 UTC (4 years ago):

TAF TAF SKAR 121700Z 1218/1318 33006KT 9999 SCT017 SCT090 TEMPO 1221/1224 8000 VCSH SCT017TCU PROB40 TEMPO 1300/1300 7000 TSRA SCT013CB BECMG 1302/1303 VRB02KT TEMPO 1311/1313 7000 VCFG SCT015 TX26/1220Z TN18/1311Z